sensor_id;sensor_type;location;lat;lon;timestamp;P1;durP1;ratioP1;P2;durP2;ratioP2
79025;SDS011;71097;44.760;37.726;2023-07-28T00:00:22;13.73;;;9.73;;
79025;SDS011;71097;44.760;37.726;2023-07-28T00:01:24;13.00;;;9.65;;
79025;SDS011;71097;44.760;37.726;2023-07-28T00:02:27;12.02;;;10.18;;
79025;SDS011;71097;44.760;37.726;2023-07-28T00:03:29;17.30;;;9.00;;
79025;SDS011;71097;44.760;37.726;2023-07-28T00:04:30;19.30;;;9.50;;
79025;SDS011;71097;44.760;37.726;2023-07-28T00:05:32;17.00;;;9.65;;
79025;SDS011;71097;44.760;37.726;2023-07-28T00:06:34;17.00;;;9.65;;
79025;SDS011;71097;44.760;37.726;2023-07-28T00:07:35;16.35;;;9.10;;
79025;SDS011;71097;44.760;37.726;2023-07-28T00:08:37;20.58;;;10.07;;
79025;SDS011;71097;44.760;37.726;2023-07-28T00:09:39;18.83;;;9.88;;
79025;SDS011;71097;44.760;37.726;2023-07-28T00:10:41;17.30;;;9.02;;
79025;SDS011;71097;44.760;37.726;2023-07-28T00:11:43;20.67;;;9.90;;
79025;SDS011;71097;44.760;37.726;2023-07-28T00:12:44;19.85;;;10.98;;
79025;SDS011;71097;44.760;37.726;2023-07-28T00:13:46;15.82;;;9.75;;
79025;SDS011;71097;44.760;37.726;2023-07-28T00:14:47;18.00;;;10.70;;
79025;SDS011;71097;44.760;37.726;2023-07-28T00:15:49;27.02;;;10.90;;
79025;SDS011;71097;44.760;37.726;2023-07-28T00:16:51;21.13;;;9.23;;
79025;SDS011;71097;44.760;37.726;2023-07-28T00:17:53;26.83;;;10.57;;
79025;SDS011;71097;44.760;37.726;2023-07-28T00:18:55;23.10;;;10.10;;
79025;SDS011;71097;44.760;37.726;2023-07-28T00:19:57;23.65;;;9.60;;
79025;SDS011;71097;44.760;37.726;2023-07-28T00:20:58;15.65;;;9.27;;
79025;SDS011;71097;44.760;37.726;2023-07-28T00:22:00;14.15;;;7.80;;
79025;SDS011;71097;44.760;37.726;2023-07-28T00:23:02;11.00;;;7.70;;
79025;SDS011;71097;44.760;37.726;2023-07-28T00:24:03;12.90;;;7.70;;
79025;SDS011;71097;44.760;37.726;2023-07-28T00:25:05;18.50;;;8.80;;
79025;SDS011;71097;44.760;37.726;2023-07-28T00:26:07;13.23;;;8.10;;
79025;SDS011;71097;44.760;37.726;2023-07-28T00:27:09;15.07;;;7.38;;
79025;SDS011;71097;44.760;37.726;2023-07-28T00:28:10;14.10;;;7.05;;
79025;SDS011;71097;44.760;37.726;2023-07-28T00:29:12;18.80;;;7.95;;
79025;SDS011;71097;44.760;37.726;2023-07-28T00:30:14;18.42;;;7.75;;
79025;SDS011;71097;44.760;37.726;2023-07-28T00:31:15;20.38;;;8.02;;
79025;SDS011;71097;44.760;37.726;2023-07-28T00:32:17;24.05;;;7.78;;
79025;SDS011;71097;44.760;37.726;2023-07-28T00:33:21;20.63;;;7.28;;
79025;SDS011;71097;44.760;37.726;2023-07-28T00:34:23;14.98;;;6.88;;
79025;SDS011;71097;44.760;37.726;2023-07-28T00:35:28;15.00;;;7.80;;
79025;SDS011;71097;44.760;37.726;2023-07-28T00:36:30;11.63;;;6.95;;
79025;SDS011;71097;44.760;37.726;2023-07-28T00:37:32;9.68;;;6.22;;
79025;SDS011;71097;44.760;37.726;2023-07-28T00:38:34;12.75;;;6.68;;
79025;SDS011;71097;44.760;37.726;2023-07-28T00:39:36;13.15;;;7.38;;
79025;SDS011;71097;44.760;37.726;2023-07-28T00:40:37;9.93;;;6.88;;
79025;SDS011;71097;44.760;37.726;2023-07-28T00:41:40;11.02;;;6.80;;
79025;SDS011;71097;44.760;37.726;2023-07-28T00:42:41;10.30;;;6.38;;
79025;SDS011;71097;44.760;37.726;2023-07-28T00:43:43;10.43;;;6.70;;
79025;SDS011;71097;44.760;37.726;2023-07-28T00:44:45;12.35;;;6.85;;
79025;SDS011;71097;44.760;37.726;2023-07-28T00:45:46;12.57;;;7.05;;
79025;SDS011;71097;44.760;37.726;2023-07-28T00:46:48;10.40;;;7.10;;
79025;SDS011;71097;44.760;37.726;2023-07-28T00:47:50;11.23;;;7.15;;
79025;SDS011;71097;44.760;37.726;2023-07-28T00:48:51;10.50;;;6.45;;
79025;SDS011;71097;44.760;37.726;2023-07-28T00:49:54;13.70;;;6.50;;
79025;SDS011;71097;44.760;37.726;2023-07-28T00:50:55;12.27;;;6.55;;
79025;SDS011;71097;44.760;37.726;2023-07-28T00:51:58;11.27;;;6.70;;
79025;SDS011;71097;44.760;37.726;2023-07-28T00:53:00;10.80;;;6.97;;
79025;SDS011;71097;44.760;37.726;2023-07-28T00:54:02;11.45;;;5.75;;
79025;SDS011;71097;44.760;37.726;2023-07-28T00:55:06;12.90;;;6.78;;
79025;SDS011;71097;44.760;37.726;2023-07-28T00:56:08;9.95;;;6.13;;
79025;SDS011;71097;44.760;37.726;2023-07-28T00:58:14;10.27;;;6.15;;
79025;SDS011;71097;44.760;37.726;2023-07-28T00:59:15;10.93;;;6.60;;
79025;SDS011;71097;44.760;37.726;2023-07-28T01:00:18;11.20;;;6.78;;
79025;SDS011;71097;44.760;37.726;2023-07-28T01:01:19;11.20;;;6.15;;
79025;SDS011;71097;44.760;37.726;2023-07-28T01:02:22;13.05;;;6.05;;
79025;SDS011;71097;44.760;37.726;2023-07-28T01:03:24;14.55;;;6.60;;
79025;SDS011;71097;44.760;37.726;2023-07-28T01:04:26;13.00;;;6.35;;
79025;SDS011;71097;44.760;37.726;2023-07-28T01:05:39;14.98;;;6.75;;
79025;SDS011;71097;44.760;37.726;2023-07-28T01:09:45;13.93;;;6.38;;
79025;SDS011;71097;44.760;37.726;2023-07-28T01:10:51;13.77;;;6.80;;
79025;SDS011;71097;44.760;37.726;2023-07-28T01:11:55;14.10;;;6.30;;
79025;SDS011;71097;44.760;37.726;2023-07-28T01:12:58;11.18;;;6.13;;
79025;SDS011;71097;44.760;37.726;2023-07-28T01:14:00;10.68;;;6.40;;
79025;SDS011;71097;44.760;37.726;2023-07-28T01:15:01;13.38;;;6.32;;
79025;SDS011;71097;44.760;37.726;2023-07-28T01:16:04;11.48;;;6.20;;
79025;SDS011;71097;44.760;37.726;2023-07-28T01:17:05;11.52;;;5.97;;
79025;SDS011;71097;44.760;37.726;2023-07-28T01:18:07;14.82;;;6.00;;
79025;SDS011;71097;44.760;37.726;2023-07-28T01:19:09;10.77;;;6.55;;
79025;SDS011;71097;44.760;37.726;2023-07-28T01:20:13;15.63;;;6.82;;
79025;SDS011;71097;44.760;37.726;2023-07-28T01:21:17;10.18;;;6.45;;
79025;SDS011;71097;44.760;37.726;2023-07-28T01:26:38;14.77;;;6.43;;
79025;SDS011;71097;44.760;37.726;2023-07-28T01:27:40;14.23;;;5.68;;
79025;SDS011;71097;44.760;37.726;2023-07-28T01:28:43;11.52;;;6.15;;
79025;SDS011;71097;44.760;37.726;2023-07-28T01:29:46;9.27;;;6.00;;
79025;SDS011;71097;44.760;37.726;2023-07-28T01:30:48;14.30;;;5.63;;
79025;SDS011;71097;44.760;37.726;2023-07-28T01:31:51;12.77;;;6.35;;
79025;SDS011;71097;44.760;37.726;2023-07-28T01:32:56;15.65;;;7.05;;
79025;SDS011;71097;44.760;37.726;2023-07-28T01:33:58;12.00;;;6.35;;
79025;SDS011;71097;44.760;37.726;2023-07-28T01:34:59;11.13;;;5.47;;
79025;SDS011;71097;44.760;37.726;2023-07-28T01:36:01;12.88;;;6.20;;
79025;SDS011;71097;44.760;37.726;2023-07-28T01:37:03;14.98;;;6.30;;
79025;SDS011;71097;44.760;37.726;2023-07-28T01:38:05;11.20;;;6.03;;
79025;SDS011;71097;44.760;37.726;2023-07-28T01:39:07;11.30;;;6.40;;
79025;SDS011;71097;44.760;37.726;2023-07-28T01:40:08;18.70;;;7.20;;
79025;SDS011;71097;44.760;37.726;2023-07-28T01:41:10;12.65;;;6.68;;
79025;SDS011;71097;44.760;37.726;2023-07-28T01:42:11;13.85;;;6.55;;
79025;SDS011;71097;44.760;37.726;2023-07-28T01:43:13;18.48;;;6.80;;
79025;SDS011;71097;44.760;37.726;2023-07-28T01:44:15;14.38;;;6.68;;
79025;SDS011;71097;44.760;37.726;2023-07-28T01:45:16;13.70;;;6.80;;
79025;SDS011;71097;44.760;37.726;2023-07-28T01:46:22;11.10;;;6.47;;
79025;SDS011;71097;44.760;37.726;2023-07-28T01:47:23;17.05;;;6.75;;
79025;SDS011;71097;44.760;37.726;2023-07-28T01:48:26;15.32;;;6.43;;
79025;SDS011;71097;44.760;37.726;2023-07-28T01:49:28;14.02;;;7.38;;
79025;SDS011;71097;44.760;37.726;2023-07-28T01:50:29;16.40;;;7.30;;
79025;SDS011;71097;44.760;37.726;2023-07-28T01:51:31;15.45;;;7.13;;
79025;SDS011;71097;44.760;37.726;2023-07-28T01:52:32;17.15;;;6.80;;
79025;SDS011;71097;44.760;37.726;2023-07-28T01:53:34;17.98;;;7.13;;
79025;SDS011;71097;44.760;37.726;2023-07-28T01:54:35;17.45;;;7.00;;
79025;SDS011;71097;44.760;37.726;2023-07-28T01:55:37;16.45;;;6.53;;
79025;SDS011;71097;44.760;37.726;2023-07-28T01:56:39;16.02;;;6.30;;
79025;SDS011;71097;44.760;37.726;2023-07-28T01:57:49;15.30;;;6.78;;
79025;SDS011;71097;44.760;37.726;2023-07-28T01:58:55;15.70;;;6.93;;
79025;SDS011;71097;44.760;37.726;2023-07-28T01:59:56;18.77;;;7.53;;
79025;SDS011;71097;44.760;37.726;2023-07-28T02:00:58;21.73;;;6.95;;
79025;SDS011;71097;44.760;37.726;2023-07-28T02:01:59;13.57;;;6.78;;
79025;SDS011;71097;44.760;37.726;2023-07-28T02:03:01;15.73;;;7.05;;
79025;SDS011;71097;44.760;37.726;2023-07-28T02:04:04;13.52;;;6.85;;
79025;SDS011;71097;44.760;37.726;2023-07-28T02:05:06;14.25;;;6.47;;
79025;SDS011;71097;44.760;37.726;2023-07-28T02:06:07;14.18;;;6.72;;
79025;SDS011;71097;44.760;37.726;2023-07-28T02:07:09;16.88;;;7.15;;
79025;SDS011;71097;44.760;37.726;2023-07-28T02:08:10;19.73;;;6.82;;
79025;SDS011;71097;44.760;37.726;2023-07-28T02:09:12;13.27;;;7.13;;
79025;SDS011;71097;44.760;37.726;2023-07-28T02:10:14;16.08;;;6.97;;
79025;SDS011;71097;44.760;37.726;2023-07-28T02:11:15;15.93;;;7.07;;
79025;SDS011;71097;44.760;37.726;2023-07-28T02:12:17;14.85;;;6.55;;
79025;SDS011;71097;44.760;37.726;2023-07-28T02:13:21;17.73;;;7.15;;
79025;SDS011;71097;44.760;37.726;2023-07-28T02:14:23;16.65;;;7.30;;
79025;SDS011;71097;44.760;37.726;2023-07-28T02:15:24;16.67;;;7.18;;
79025;SDS011;71097;44.760;37.726;2023-07-28T02:16:26;21.45;;;8.07;;
79025;SDS011;71097;44.760;37.726;2023-07-28T02:17:31;22.45;;;8.25;;
79025;SDS011;71097;44.760;37.726;2023-07-28T02:18:33;21.65;;;8.38;;
79025;SDS011;71097;44.760;37.726;2023-07-28T02:19:35;20.55;;;8.55;;
79025;SDS011;71097;44.760;37.726;2023-07-28T02:20:36;16.75;;;6.53;;
79025;SDS011;71097;44.760;37.726;2023-07-28T02:21:39;15.95;;;7.30;;
79025;SDS011;71097;44.760;37.726;2023-07-28T02:22:41;14.30;;;6.88;;
79025;SDS011;71097;44.760;37.726;2023-07-28T02:23:43;14.75;;;7.10;;
79025;SDS011;71097;44.760;37.726;2023-07-28T02:24:45;14.50;;;7.38;;
79025;SDS011;71097;44.760;37.726;2023-07-28T02:25:46;16.23;;;7.43;;
79025;SDS011;71097;44.760;37.726;2023-07-28T02:26:48;15.98;;;6.85;;
79025;SDS011;71097;44.760;37.726;2023-07-28T02:27:50;14.13;;;6.40;;
79025;SDS011;71097;44.760;37.726;2023-07-28T02:28:52;14.10;;;7.20;;
79025;SDS011;71097;44.760;37.726;2023-07-28T02:29:53;17.70;;;7.65;;
79025;SDS011;71097;44.760;37.726;2023-07-28T02:30:55;17.45;;;6.72;;
79025;SDS011;71097;44.760;37.726;2023-07-28T02:31:56;11.55;;;7.07;;
79025;SDS011;71097;44.760;37.726;2023-07-28T02:32:58;14.77;;;7.18;;
79025;SDS011;71097;44.760;37.726;2023-07-28T02:34:00;17.17;;;6.45;;
79025;SDS011;71097;44.760;37.726;2023-07-28T02:35:01;16.15;;;7.22;;
79025;SDS011;71097;44.760;37.726;2023-07-28T02:36:04;14.85;;;7.43;;
79025;SDS011;71097;44.760;37.726;2023-07-28T02:37:06;15.75;;;6.57;;
79025;SDS011;71097;44.760;37.726;2023-07-28T02:38:08;15.73;;;7.20;;
79025;SDS011;71097;44.760;37.726;2023-07-28T02:39:09;11.90;;;6.28;;
79025;SDS011;71097;44.760;37.726;2023-07-28T02:40:11;16.20;;;6.93;;
79025;SDS011;71097;44.760;37.726;2023-07-28T02:41:13;15.48;;;7.03;;
79025;SDS011;71097;44.760;37.726;2023-07-28T02:42:15;21.67;;;7.20;;
79025;SDS011;71097;44.760;37.726;2023-07-28T02:43:17;16.70;;;7.10;;
79025;SDS011;71097;44.760;37.726;2023-07-28T02:44:18;14.30;;;6.78;;
79025;SDS011;71097;44.760;37.726;2023-07-28T02:45:20;16.10;;;7.00;;
79025;SDS011;71097;44.760;37.726;2023-07-28T02:46:22;15.43;;;7.15;;
79025;SDS011;71097;44.760;37.726;2023-07-28T02:47:23;17.92;;;7.28;;
79025;SDS011;71097;44.760;37.726;2023-07-28T02:48:25;15.63;;;7.22;;
79025;SDS011;71097;44.760;37.726;2023-07-28T02:49:26;13.07;;;7.63;;
79025;SDS011;71097;44.760;37.726;2023-07-28T02:50:28;17.40;;;7.90;;
79025;SDS011;71097;44.760;37.726;2023-07-28T02:51:30;15.55;;;6.43;;
79025;SDS011;71097;44.760;37.726;2023-07-28T02:52:32;16.70;;;6.97;;
79025;SDS011;71097;44.760;37.726;2023-07-28T02:53:33;15.48;;;7.30;;
79025;SDS011;71097;44.760;37.726;2023-07-28T02:54:35;18.20;;;7.82;;
79025;SDS011;71097;44.760;37.726;2023-07-28T02:55:40;14.38;;;6.45;;
79025;SDS011;71097;44.760;37.726;2023-07-28T02:56:45;12.63;;;6.72;;
79025;SDS011;71097;44.760;37.726;2023-07-28T02:57:46;14.35;;;6.65;;
79025;SDS011;71097;44.760;37.726;2023-07-28T02:58:48;16.98;;;7.20;;
79025;SDS011;71097;44.760;37.726;2023-07-28T02:59:50;15.68;;;7.07;;
79025;SDS011;71097;44.760;37.726;2023-07-28T03:00:53;13.90;;;7.05;;
79025;SDS011;71097;44.760;37.726;2023-07-28T03:02:03;14.02;;;6.53;;
79025;SDS011;71097;44.760;37.726;2023-07-28T03:03:06;15.60;;;7.00;;
79025;SDS011;71097;44.760;37.726;2023-07-28T03:04:11;13.88;;;6.72;;
79025;SDS011;71097;44.760;37.726;2023-07-28T03:05:36;15.93;;;6.40;;
79025;SDS011;71097;44.760;37.726;2023-07-28T03:06:52;14.73;;;6.35;;
79025;SDS011;71097;44.760;37.726;2023-07-28T03:07:55;19.98;;;6.85;;
79025;SDS011;71097;44.760;37.726;2023-07-28T03:08:59;16.20;;;6.90;;
79025;SDS011;71097;44.760;37.726;2023-07-28T03:10:27;14.88;;;6.60;;
79025;SDS011;71097;44.760;37.726;2023-07-28T03:11:29;15.13;;;6.78;;
79025;SDS011;71097;44.760;37.726;2023-07-28T03:12:30;12.32;;;6.68;;
79025;SDS011;71097;44.760;37.726;2023-07-28T03:13:32;12.07;;;6.13;;
79025;SDS011;71097;44.760;37.726;2023-07-28T03:14:33;14.80;;;6.40;;
79025;SDS011;71097;44.760;37.726;2023-07-28T03:15:35;11.95;;;6.70;;
79025;SDS011;71097;44.760;37.726;2023-07-28T03:16:37;15.20;;;6.85;;
79025;SDS011;71097;44.760;37.726;2023-07-28T03:17:38;14.38;;;7.15;;
79025;SDS011;71097;44.760;37.726;2023-07-28T03:18:40;14.27;;;6.65;;
79025;SDS011;71097;44.760;37.726;2023-07-28T03:19:41;13.38;;;6.07;;
79025;SDS011;71097;44.760;37.726;2023-07-28T03:20:43;12.23;;;6.53;;
79025;SDS011;71097;44.760;37.726;2023-07-28T03:21:44;14.38;;;6.90;;
79025;SDS011;71097;44.760;37.726;2023-07-28T03:22:46;13.40;;;6.65;;
79025;SDS011;71097;44.760;37.726;2023-07-28T03:23:47;12.88;;;6.35;;
79025;SDS011;71097;44.760;37.726;2023-07-28T03:24:49;17.25;;;7.25;;
79025;SDS011;71097;44.760;37.726;2023-07-28T03:25:51;15.88;;;7.03;;
79025;SDS011;71097;44.760;37.726;2023-07-28T03:26:53;16.17;;;6.78;;
79025;SDS011;71097;44.760;37.726;2023-07-28T03:27:54;14.13;;;6.35;;
79025;SDS011;71097;44.760;37.726;2023-07-28T03:28:56;16.33;;;6.75;;
79025;SDS011;71097;44.760;37.726;2023-07-28T03:29:57;13.70;;;6.95;;
79025;SDS011;71097;44.760;37.726;2023-07-28T03:30:59;12.57;;;6.50;;
79025;SDS011;71097;44.760;37.726;2023-07-28T03:32:01;18.98;;;7.70;;
79025;SDS011;71097;44.760;37.726;2023-07-28T03:33:02;15.30;;;7.20;;
79025;SDS011;71097;44.760;37.726;2023-07-28T03:34:04;14.65;;;6.85;;
79025;SDS011;71097;44.760;37.726;2023-07-28T03:35:06;10.80;;;6.50;;
79025;SDS011;71097;44.760;37.726;2023-07-28T03:36:13;11.65;;;5.82;;
79025;SDS011;71097;44.760;37.726;2023-07-28T03:37:15;15.60;;;6.22;;
79025;SDS011;71097;44.760;37.726;2023-07-28T03:38:17;11.05;;;6.28;;
79025;SDS011;71097;44.760;37.726;2023-07-28T03:39:20;11.88;;;6.28;;
79025;SDS011;71097;44.760;37.726;2023-07-28T03:40:23;10.63;;;6.88;;
79025;SDS011;71097;44.760;37.726;2023-07-28T03:41:27;17.38;;;7.00;;
79025;SDS011;71097;44.760;37.726;2023-07-28T03:42:29;16.40;;;7.15;;
79025;SDS011;71097;44.760;37.726;2023-07-28T03:43:31;14.10;;;7.05;;
79025;SDS011;71097;44.760;37.726;2023-07-28T03:44:33;13.55;;;6.55;;
79025;SDS011;71097;44.760;37.726;2023-07-28T03:45:34;12.25;;;6.13;;
79025;SDS011;71097;44.760;37.726;2023-07-28T03:46:36;12.80;;;6.13;;
79025;SDS011;71097;44.760;37.726;2023-07-28T03:47:38;18.15;;;7.13;;
79025;SDS011;71097;44.760;37.726;2023-07-28T03:48:40;12.00;;;6.70;;
79025;SDS011;71097;44.760;37.726;2023-07-28T03:49:44;10.43;;;5.47;;
79025;SDS011;71097;44.760;37.726;2023-07-28T03:50:52;12.65;;;5.97;;
79025;SDS011;71097;44.760;37.726;2023-07-28T03:51:57;12.25;;;6.38;;
79025;SDS011;71097;44.760;37.726;2023-07-28T03:52:59;13.77;;;6.10;;
79025;SDS011;71097;44.760;37.726;2023-07-28T03:54:01;12.40;;;6.65;;
79025;SDS011;71097;44.760;37.726;2023-07-28T03:55:03;20.05;;;6.47;;
79025;SDS011;71097;44.760;37.726;2023-07-28T03:56:05;11.95;;;6.22;;
79025;SDS011;71097;44.760;37.726;2023-07-28T03:57:08;11.07;;;5.60;;
79025;SDS011;71097;44.760;37.726;2023-07-28T03:58:10;13.32;;;6.15;;
79025;SDS011;71097;44.760;37.726;2023-07-28T03:59:14;13.18;;;6.47;;
79025;SDS011;71097;44.760;37.726;2023-07-28T04:00:18;13.02;;;5.97;;
79025;SDS011;71097;44.760;37.726;2023-07-28T04:01:22;11.93;;;6.25;;
79025;SDS011;71097;44.760;37.726;2023-07-28T04:02:25;12.55;;;5.63;;
79025;SDS011;71097;44.760;37.726;2023-07-28T04:03:26;11.40;;;5.80;;
79025;SDS011;71097;44.760;37.726;2023-07-28T04:04:28;11.50;;;5.50;;
79025;SDS011;71097;44.760;37.726;2023-07-28T04:05:29;14.43;;;6.63;;
79025;SDS011;71097;44.760;37.726;2023-07-28T04:06:47;11.10;;;5.72;;
79025;SDS011;71097;44.760;37.726;2023-07-28T04:07:56;12.88;;;6.03;;
79025;SDS011;71097;44.760;37.726;2023-07-28T04:08:58;18.83;;;6.25;;
79025;SDS011;71097;44.760;37.726;2023-07-28T04:10:00;14.10;;;6.38;;
79025;SDS011;71097;44.760;37.726;2023-07-28T04:11:02;11.65;;;5.95;;
79025;SDS011;71097;44.760;37.726;2023-07-28T04:12:04;12.18;;;5.57;;
79025;SDS011;71097;44.760;37.726;2023-07-28T04:13:05;11.75;;;5.85;;
79025;SDS011;71097;44.760;37.726;2023-07-28T04:14:10;11.52;;;5.88;;
79025;SDS011;71097;44.760;37.726;2023-07-28T04:15:12;9.27;;;4.18;;
79025;SDS011;71097;44.760;37.726;2023-07-28T04:16:13;10.43;;;4.93;;
79025;SDS011;71097;44.760;37.726;2023-07-28T04:17:15;10.65;;;4.68;;
79025;SDS011;71097;44.760;37.726;2023-07-28T04:18:17;12.77;;;4.65;;
79025;SDS011;71097;44.760;37.726;2023-07-28T04:19:19;8.20;;;3.83;;
79025;SDS011;71097;44.760;37.726;2023-07-28T04:20:20;8.77;;;3.75;;
79025;SDS011;71097;44.760;37.726;2023-07-28T04:21:22;11.68;;;4.00;;
79025;SDS011;71097;44.760;37.726;2023-07-28T04:22:24;9.75;;;3.88;;
79025;SDS011;71097;44.760;37.726;2023-07-28T04:23:27;8.90;;;4.22;;
79025;SDS011;71097;44.760;37.726;2023-07-28T04:24:29;8.25;;;3.67;;
79025;SDS011;71097;44.760;37.726;2023-07-28T04:25:30;8.60;;;3.72;;
79025;SDS011;71097;44.760;37.726;2023-07-28T04:26:32;9.30;;;3.63;;
79025;SDS011;71097;44.760;37.726;2023-07-28T04:27:38;9.07;;;4.00;;
79025;SDS011;71097;44.760;37.726;2023-07-28T04:28:40;12.55;;;4.28;;
79025;SDS011;71097;44.760;37.726;2023-07-28T04:29:42;10.07;;;4.90;;
79025;SDS011;71097;44.760;37.726;2023-07-28T04:30:45;10.75;;;3.92;;
79025;SDS011;71097;44.760;37.726;2023-07-28T04:32:10;9.63;;;4.03;;
79025;SDS011;71097;44.760;37.726;2023-07-28T04:33:12;10.05;;;4.93;;
79025;SDS011;71097;44.760;37.726;2023-07-28T04:34:14;27.00;;;14.88;;
79025;SDS011;71097;44.760;37.726;2023-07-28T04:35:44;15.75;;;7.22;;
79025;SDS011;71097;44.760;37.726;2023-07-28T04:37:05;8.88;;;4.63;;
79025;SDS011;71097;44.760;37.726;2023-07-28T04:38:20;8.48;;;4.60;;
79025;SDS011;71097;44.760;37.726;2023-07-28T04:39:29;19.63;;;10.70;;
79025;SDS011;71097;44.760;37.726;2023-07-28T04:40:31;16.58;;;9.50;;
79025;SDS011;71097;44.760;37.726;2023-07-28T04:41:33;14.65;;;7.22;;
79025;SDS011;71097;44.760;37.726;2023-07-28T04:42:35;18.40;;;9.48;;
79025;SDS011;71097;44.760;37.726;2023-07-28T04:43:40;14.30;;;6.97;;
79025;SDS011;71097;44.760;37.726;2023-07-28T04:44:44;10.82;;;6.32;;
79025;SDS011;71097;44.760;37.726;2023-07-28T04:45:47;13.35;;;5.93;;
79025;SDS011;71097;44.760;37.726;2023-07-28T04:46:53;12.73;;;5.80;;
79025;SDS011;71097;44.760;37.726;2023-07-28T04:47:55;12.52;;;5.70;;
79025;SDS011;71097;44.760;37.726;2023-07-28T04:48:57;15.70;;;8.45;;
79025;SDS011;71097;44.760;37.726;2023-07-28T04:50:17;16.40;;;9.95;;
79025;SDS011;71097;44.760;37.726;2023-07-28T04:51:44;8.88;;;4.75;;
79025;SDS011;71097;44.760;37.726;2023-07-28T04:52:58;12.57;;;6.32;;
79025;SDS011;71097;44.760;37.726;2023-07-28T04:54:16;13.20;;;6.32;;
79025;SDS011;71097;44.760;37.726;2023-07-28T04:55:17;7.13;;;3.90;;
79025;SDS011;71097;44.760;37.726;2023-07-28T04:56:19;12.95;;;4.78;;
79025;SDS011;71097;44.760;37.726;2023-07-28T04:57:21;9.90;;;3.67;;
79025;SDS011;71097;44.760;37.726;2023-07-28T04:58:23;8.18;;;3.03;;
79025;SDS011;71097;44.760;37.726;2023-07-28T04:59:27;9.85;;;3.05;;
79025;SDS011;71097;44.760;37.726;2023-07-28T05:00:29;9.57;;;3.60;;
79025;SDS011;71097;44.760;37.726;2023-07-28T05:01:30;10.05;;;3.08;;
79025;SDS011;71097;44.760;37.726;2023-07-28T05:02:32;6.28;;;2.75;;
79025;SDS011;71097;44.760;37.726;2023-07-28T05:03:34;7.93;;;3.28;;
79025;SDS011;71097;44.760;37.726;2023-07-28T05:04:55;8.80;;;2.80;;
79025;SDS011;71097;44.760;37.726;2023-07-28T05:05:57;9.90;;;3.22;;
79025;SDS011;71097;44.760;37.726;2023-07-28T05:07:02;11.18;;;3.63;;
79025;SDS011;71097;44.760;37.726;2023-07-28T05:08:05;9.32;;;3.03;;
79025;SDS011;71097;44.760;37.726;2023-07-28T05:09:06;8.63;;;3.03;;
79025;SDS011;71097;44.760;37.726;2023-07-28T05:10:09;8.32;;;2.97;;
79025;SDS011;71097;44.760;37.726;2023-07-28T05:11:11;7.50;;;3.25;;
79025;SDS011;71097;44.760;37.726;2023-07-28T05:12:15;7.25;;;2.28;;
79025;SDS011;71097;44.760;37.726;2023-07-28T05:13:21;7.90;;;2.85;;
79025;SDS011;71097;44.760;37.726;2023-07-28T05:14:28;7.72;;;3.03;;
79025;SDS011;71097;44.760;37.726;2023-07-28T05:15:32;8.55;;;3.40;;
79025;SDS011;71097;44.760;37.726;2023-07-28T05:16:34;8.80;;;2.85;;
79025;SDS011;71097;44.760;37.726;2023-07-28T05:17:39;6.90;;;2.80;;
79025;SDS011;71097;44.760;37.726;2023-07-28T05:19:06;8.82;;;2.78;;
79025;SDS011;71097;44.760;37.726;2023-07-28T05:20:14;8.50;;;2.90;;
79025;SDS011;71097;44.760;37.726;2023-07-28T05:21:40;10.73;;;3.10;;
79025;SDS011;71097;44.760;37.726;2023-07-28T05:23:45;8.80;;;3.33;;
79025;SDS011;71097;44.760;37.726;2023-07-28T05:24:46;10.05;;;2.58;;
79025;SDS011;71097;44.760;37.726;2023-07-28T05:25:51;10.85;;;2.90;;
79025;SDS011;71097;44.760;37.726;2023-07-28T05:26:52;7.50;;;2.40;;
79025;SDS011;71097;44.760;37.726;2023-07-28T05:27:54;8.38;;;3.15;;
79025;SDS011;71097;44.760;37.726;2023-07-28T05:28:56;7.60;;;2.25;;
79025;SDS011;71097;44.760;37.726;2023-07-28T05:29:59;6.45;;;3.08;;
79025;SDS011;71097;44.760;37.726;2023-07-28T05:31:06;11.27;;;3.10;;
79025;SDS011;71097;44.760;37.726;2023-07-28T05:32:09;6.40;;;3.20;;
79025;SDS011;71097;44.760;37.726;2023-07-28T05:33:31;9.55;;;3.33;;
79025;SDS011;71097;44.760;37.726;2023-07-28T05:34:36;11.32;;;3.60;;
79025;SDS011;71097;44.760;37.726;2023-07-28T05:35:37;9.63;;;3.42;;
79025;SDS011;71097;44.760;37.726;2023-07-28T05:36:39;8.18;;;3.00;;
79025;SDS011;71097;44.760;37.726;2023-07-28T05:37:41;15.48;;;3.42;;
79025;SDS011;71097;44.760;37.726;2023-07-28T05:38:43;9.75;;;2.90;;
79025;SDS011;71097;44.760;37.726;2023-07-28T05:39:45;8.90;;;3.63;;
79025;SDS011;71097;44.760;37.726;2023-07-28T05:40:55;10.00;;;3.33;;
79025;SDS011;71097;44.760;37.726;2023-07-28T05:41:58;8.57;;;2.92;;
79025;SDS011;71097;44.760;37.726;2023-07-28T05:43:02;10.90;;;4.00;;
79025;SDS011;71097;44.760;37.726;2023-07-28T05:44:04;8.60;;;2.88;;
79025;SDS011;71097;44.760;37.726;2023-07-28T05:45:06;7.53;;;2.90;;
79025;SDS011;71097;44.760;37.726;2023-07-28T05:46:08;11.90;;;3.47;;
79025;SDS011;71097;44.760;37.726;2023-07-28T05:47:11;9.02;;;3.33;;
79025;SDS011;71097;44.760;37.726;2023-07-28T05:48:13;7.15;;;2.60;;
79025;SDS011;71097;44.760;37.726;2023-07-28T05:49:15;9.00;;;3.28;;
79025;SDS011;71097;44.760;37.726;2023-07-28T05:50:17;8.63;;;2.80;;
79025;SDS011;71097;44.760;37.726;2023-07-28T05:51:20;12.20;;;2.63;;
79025;SDS011;71097;44.760;37.726;2023-07-28T05:52:26;7.57;;;2.53;;
79025;SDS011;71097;44.760;37.726;2023-07-28T05:53:35;8.55;;;3.05;;
79025;SDS011;71097;44.760;37.726;2023-07-28T05:54:40;6.63;;;2.80;;
79025;SDS011;71097;44.760;37.726;2023-07-28T05:55:42;11.52;;;3.20;;
79025;SDS011;71097;44.760;37.726;2023-07-28T05:56:47;9.98;;;3.00;;
79025;SDS011;71097;44.760;37.726;2023-07-28T05:57:54;10.23;;;3.05;;
79025;SDS011;71097;44.760;37.726;2023-07-28T05:58:56;9.27;;;2.90;;
79025;SDS011;71097;44.760;37.726;2023-07-28T05:59:58;8.82;;;2.38;;
79025;SDS011;71097;44.760;37.726;2023-07-28T06:01:01;5.65;;;2.55;;
79025;SDS011;71097;44.760;37.726;2023-07-28T06:02:36;7.45;;;2.42;;
79025;SDS011;71097;44.760;37.726;2023-07-28T06:03:38;9.85;;;2.83;;
79025;SDS011;71097;44.760;37.726;2023-07-28T06:04:51;6.35;;;2.42;;
79025;SDS011;71097;44.760;37.726;2023-07-28T06:05:53;8.73;;;2.20;;
79025;SDS011;71097;44.760;37.726;2023-07-28T06:06:55;6.30;;;2.10;;
79025;SDS011;71097;44.760;37.726;2023-07-28T06:07:56;15.55;;;2.90;;
79025;SDS011;71097;44.760;37.726;2023-07-28T06:08:58;11.13;;;2.67;;
79025;SDS011;71097;44.760;37.726;2023-07-28T06:10:00;9.45;;;2.38;;
79025;SDS011;71097;44.760;37.726;2023-07-28T06:12:08;9.30;;;3.03;;
79025;SDS011;71097;44.760;37.726;2023-07-28T06:13:09;8.07;;;2.60;;
79025;SDS011;71097;44.760;37.726;2023-07-28T06:14:11;10.68;;;2.75;;
79025;SDS011;71097;44.760;37.726;2023-07-28T06:15:13;8.00;;;2.70;;
79025;SDS011;71097;44.760;37.726;2023-07-28T06:16:17;9.15;;;2.75;;
79025;SDS011;71097;44.760;37.726;2023-07-28T06:17:19;7.68;;;2.63;;
79025;SDS011;71097;44.760;37.726;2023-07-28T06:18:21;8.05;;;2.55;;
79025;SDS011;71097;44.760;37.726;2023-07-28T06:19:34;8.43;;;2.47;;
79025;SDS011;71097;44.760;37.726;2023-07-28T06:20:35;12.68;;;3.22;;
79025;SDS011;71097;44.760;37.726;2023-07-28T06:21:37;10.57;;;2.70;;
79025;SDS011;71097;44.760;37.726;2023-07-28T06:22:38;7.78;;;2.75;;